Time;durP1;ratioP1;P1;durP2;ratioP2;P2;SDS_P1;SDS_P2;PMS_P1;PMS_P2;Temp;Humidity;BMP_temperature;BMP_pressure;BME280_temperature;BME280_humidity;BME280_pressure;Samples;Min_cycle;Max_cycle;Signal;HPM_P1;HPM_P2
2022/05/11 00:00:36;;;;;;;16.45;9.52;;;13.80;99.90;;;;;;5055719;28;20044;-70
2022/05/11 00:03:02;;;;;;;16.73;9.95;;;13.90;99.90;;;;;;5056451;28;20114;-70
2022/05/11 00:05:27;;;;;;;16.73;9.63;;;13.80;99.90;;;;;;5056061;28;20098;-70
2022/05/11 00:07:53;;;;;;;16.88;9.45;;;14.00;99.90;;;;;;5056395;28;20123;-70
2022/05/11 00:10:19;;;;;;;10.45;7.85;;;14.00;99.90;;;;;;5073435;28;20577;-71
2022/05/11 00:12:46;;;;;;;15.52;8.50;;;13.80;99.90;;;;;;5056301;28;20391;-71
2022/05/11 00:15:15;;;;;;;15.73;8.85;;;13.90;99.90;;;;;;5055993;28;20072;-71
2022/05/11 00:17:40;;;;;;;19.23;10.40;;;13.90;99.90;;;;;;5056230;28;20072;-71
2022/05/11 00:20:07;;;;;;;13.52;9.35;;;14.00;99.90;;;;;;5055673;28;20094;-71
2022/05/11 00:22:37;;;;;;;14.93;9.07;;;14.10;99.90;;;;;;5055943;28;20041;-71
2022/05/11 00:25:05;;;;;;;18.77;10.00;;;14.10;99.90;;;;;;5039342;28;20097;-71
2022/05/11 00:27:31;;;;;;;18.92;9.60;;;13.90;99.90;;;;;;5055959;28;20044;-71
2022/05/11 00:29:57;;;;;;;15.55;9.63;;;14.00;99.90;;;;;;5073122;28;20090;-71
2022/05/11 00:32:25;;;;;;;22.00;10.57;;;14.10;99.90;;;;;;5055985;28;20127;-70
2022/05/11 00:34:51;;;;;;;21.02;13.13;;;;;;;;;;5055829;28;20040;-71
2022/05/11 00:37:17;;;;;;;17.30;9.35;;;14.00;99.90;;;;;;5073579;28;20033;-71
2022/05/11 00:39:43;;;;;;;22.60;10.32;;;14.00;99.90;;;;;;5038171;28;20032;-71
2022/05/11 00:42:08;;;;;;;23.38;10.90;;;14.00;99.90;;;;;;5071933;28;20063;-72
2022/05/11 00:44:34;;;;;;;20.40;10.38;;;13.90;99.90;;;;;;5055371;28;20135;-71
2022/05/11 00:47:09;;;;;;;18.83;11.73;;;13.80;99.90;;;;;;5055431;28;20037;-71
2022/05/11 00:49:40;;;;;;;19.60;10.18;;;14.00;99.90;;;;;;5072717;28;20036;-71
2022/05/11 00:52:09;;;;;;;16.42;8.65;;;14.10;99.90;;;;;;5073557;28;20082;-70
2022/05/11 00:54:41;;;;;;;19.45;9.43;;;14.00;99.90;;;;;;5055334;28;20076;-71
2022/05/11 00:57:22;;;;;;;18.75;10.20;;;13.90;99.90;;;;;;5055286;28;20046;-71
2022/05/11 00:59:52;;;;;;;21.45;10.27;;;13.90;99.90;;;;;;5071743;28;20040;-71
2022/05/11 01:02:20;;;;;;;14.93;9.68;;;14.20;99.90;;;;;;5055397;28;20052;-71
2022/05/11 01:04:46;;;;;;;19.25;9.70;;;13.90;99.90;;;;;;5072950;28;20044;-72
2022/05/11 01:07:13;;;;;;;21.17;10.40;;;14.00;99.90;;;;;;5055095;28;20556;-71
2022/05/11 01:09:40;;;;;;;15.50;9.80;;;14.10;99.90;;;;;;5054253;28;20044;-71
2022/05/11 01:12:10;;;;;;;14.75;9.95;;;13.90;99.90;;;;;;5038733;28;20037;-71
2022/05/11 01:14:38;;;;;;;20.02;10.50;;;14.00;99.90;;;;;;5054887;28;20127;-71
2022/05/11 01:17:05;;;;;;;17.08;10.32;;;13.80;99.90;;;;;;5072900;28;20072;-72
2022/05/11 01:19:34;;;;;;;20.17;10.00;;;14.00;99.90;;;;;;5072192;28;20040;-70
2022/05/11 01:22:31;;;;;;;13.98;9.02;;;14.10;99.90;;;;;;5054776;28;20039;-71
2022/05/11 01:24:57;;;;;;;14.75;9.95;;;14.00;99.90;;;;;;5054646;28;20036;-71
2022/05/11 01:27:26;;;;;;;13.20;9.25;;;13.90;99.90;;;;;;5054666;28;20062;-71
2022/05/11 01:29:52;;;;;;;10.38;7.95;;;;;;;;;;5071937;28;20082;-71
2022/05/11 01:32:20;;;;;;;14.30;8.40;;;14.00;99.90;;;;;;5054645;28;20102;-71
2022/05/11 01:34:46;;;;;;;12.63;8.30;;;13.90;99.90;;;;;;5037977;28;20066;-71
2022/05/11 01:37:12;;;;;;;15.00;8.30;;;;;;;;;;5038100;28;20155;-71
2022/05/11 01:39:38;;;;;;;16.38;8.43;;;14.00;99.90;;;;;;5053851;28;20585;-71
2022/05/11 01:42:04;;;;;;;14.82;8.65;;;;;;;;;;5053523;28;20140;-71
2022/05/11 01:44:30;;;;;;;16.10;8.52;;;13.80;99.90;;;;;;5054458;28;20123;-71
2022/05/11 01:46:58;;;;;;;15.52;8.32;;;13.80;99.90;;;;;;5038208;28;20139;-71
2022/05/11 01:49:24;;;;;;;14.75;9.10;;;;;;;;;;5071449;28;20039;-71
2022/05/11 01:51:50;;;;;;;13.43;7.65;;;14.00;99.90;;;;;;5072381;28;20043;-71
2022/05/11 01:54:16;;;;;;;12.18;7.68;;;13.80;99.90;;;;;;5054478;28;20711;-71
2022/05/11 01:56:42;;;;;;;15.73;7.38;;;;;;;;;;5054307;28;20040;-71
2022/05/11 01:59:08;;;;;;;15.20;9.27;;;;;;;;;;5053483;28;20040;-70
2022/05/11 02:01:37;;;;;;;14.30;8.48;;;13.90;99.90;;;;;;5037687;28;20040;-71
2022/05/11 02:04:03;;;;;;;12.95;8.00;;;13.90;99.90;;;;;;5053894;28;20498;-72
2022/05/11 02:09:14;;;;;;;12.35;8.38;;;13.70;99.90;;;;;;5053268;28;20125;-71
2022/05/11 02:11:40;;;;;;;12.32;7.57;;;13.80;99.90;;;;;;5053116;28;20098;-71
2022/05/11 02:14:06;;;;;;;13.93;8.35;;;;;;;;;;5071810;28;20040;-72
2022/05/11 02:16:32;;;;;;;12.82;8.68;;;13.90;99.90;;;;;;5071715;28;20494;-69
2022/05/11 02:18:58;;;;;;;12.98;7.68;;;13.80;99.90;;;;;;5053732;28;20110;-69
2022/05/11 02:21:24;;;;;;;13.70;8.85;;;13.90;99.90;;;;;;5037239;28;20090;-71
2022/05/11 02:23:51;;;;;;;15.93;8.60;;;13.90;99.90;;;;;;5071689;28;20041;-71
2022/05/11 02:26:21;;;;;;;16.02;8.63;;;13.80;99.90;;;;;;5053762;28;20127;-70
2022/05/11 02:28:49;;;;;;;14.20;8.88;;;13.90;99.90;;;;;;5053927;28;20094;-69
2022/05/11 02:31:15;;;;;;;14.73;7.90;;;;;;;;;;5052934;28;20037;-71
2022/05/11 02:33:40;;;;;;;14.20;8.15;;;13.70;99.90;;;;;;5037369;28;20139;-71
2022/05/11 02:36:06;;;;;;;11.77;8.23;;;13.70;99.90;;;;;;5053823;28;20094;-70
2022/05/11 02:38:35;;;;;;;15.25;8.32;;;13.80;99.90;;;;;;5071718;28;20406;-71
2022/05/11 02:41:02;;;;;;;17.05;8.15;;;13.70;99.90;;;;;;5052647;28;20530;-70
2022/05/11 02:43:28;;;;;;;14.98;7.82;;;13.80;99.90;;;;;;5052764;28;20181;-71
2022/05/11 02:45:54;;;;;;;11.25;7.20;;;13.80;99.90;;;;;;5036891;28;20040;-70
2022/05/11 02:48:23;;;;;;;11.38;6.90;;;13.80;99.90;;;;;;5053731;28;20046;-71
2022/05/11 02:50:51;;;;;;;12.15;7.68;;;13.70;99.90;;;;;;5052919;28;20040;-70
2022/05/11 02:53:18;;;;;;;13.05;7.18;;;13.60;99.90;;;;;;5053736;28;20036;-70
2022/05/11 02:55:46;;;;;;;11.32;7.93;;;13.60;99.90;;;;;;5071314;28;20044;-71
2022/05/11 02:58:13;;;;;;;12.40;8.45;;;13.70;99.90;;;;;;5053375;28;20040;-71
2022/05/11 03:00:42;;;;;;;16.60;7.80;;;13.80;99.90;;;;;;5036284;28;20048;-70
2022/05/11 03:03:08;;;;;;;12.02;6.85;;;;;;;;;;5071437;28;20245;-70
2022/05/11 03:05:34;;;;;;;13.52;7.35;;;13.80;99.90;;;;;;5054671;28;20394;-72
2022/05/11 03:08:00;;;;;;;16.80;7.55;;;13.70;99.90;;;;;;5053736;28;20090;-72
2022/05/11 03:10:26;;;;;;;10.77;6.20;;;13.70;99.90;;;;;;5052537;28;20074;-72
2022/05/11 03:12:52;;;;;;;8.90;6.63;;;13.80;99.90;;;;;;5071543;28;20032;-72
2022/05/11 03:15:18;;;;;;;12.48;6.97;;;13.70;99.90;;;;;;5053128;28;20079;-72
2022/05/11 03:17:43;;;;;;;14.95;7.55;;;13.80;99.90;;;;;;5053570;28;20072;-72
2022/05/11 03:20:10;;;;;;;15.75;7.32;;;13.80;99.90;;;;;;5070372;28;20111;-73
2022/05/11 03:22:36;;;;;;;13.50;6.80;;;13.70;99.90;;;;;;5038850;28;20028;-72
2022/05/11 03:25:02;;;;;;;11.70;6.15;;;13.80;99.90;;;;;;5056782;28;20406;-73
2022/05/11 03:27:28;;;;;;;15.52;7.35;;;13.80;99.90;;;;;;5056969;28;20086;-73
2022/05/11 03:29:54;;;;;;;16.02;7.43;;;13.70;99.90;;;;;;5056162;28;20029;-72
2022/05/11 03:35:08;;;;;;;13.73;7.20;;;13.60;99.90;;;;;;5056752;28;20147;-72
2022/05/11 03:37:34;;;;;;;11.50;6.32;;;13.50;99.90;;;;;;5056776;28;20052;-73
2022/05/11 03:40:01;;;;;;;16.48;6.63;;;13.50;99.90;;;;;;5056286;28;20041;-73
2022/05/11 03:42:30;;;;;;;11.43;6.45;;;13.60;99.90;;;;;;5055691;28;20047;-72
2022/05/11 03:45:24;;;;;;;14.38;7.00;;;13.50;99.90;;;;;;5056505;28;20036;-72
2022/05/11 03:47:49;;;;;;;11.95;6.13;;;13.50;99.90;;;;;;5039813;28;20406;-72
2022/05/11 03:50:19;;;;;;;10.73;5.57;;;13.50;99.90;;;;;;5055762;28;20036;-72
2022/05/11 03:52:45;;;;;;;13.10;5.78;;;13.50;99.90;;;;;;5056841;28;20044;-72
2022/05/11 03:55:11;;;;;;;9.48;6.05;;;13.60;99.90;;;;;;5056527;28;20036;-72
2022/05/11 03:57:38;;;;;;;12.48;5.60;;;13.80;99.90;;;;;;5056560;28;20040;-72
2022/05/11 04:00:06;;;;;;;13.00;5.55;;;13.60;99.90;;;;;;5038970;28;20490;-72
2022/05/11 04:02:33;;;;;;;12.82;6.05;;;13.50;99.90;;;;;;5056575;28;20490;-72
2022/05/11 04:04:58;;;;;;;13.32;5.57;;;13.50;99.90;;;;;;5039394;28;20067;-72
2022/05/11 04:07:24;;;;;;;14.70;5.65;;;13.50;99.90;;;;;;5056270;28;20036;-72
2022/05/11 04:09:50;;;;;;;12.75;5.13;;;13.70;99.90;;;;;;5055695;28;20080;-73
2022/05/11 04:12:15;;;;;;;13.32;5.30;;;13.50;99.90;;;;;;5039881;28;20529;-72
2022/05/11 04:14:41;;;;;;;10.73;4.80;;;13.70;99.90;;;;;;5055944;28;20509;-72
2022/05/11 04:17:07;;;;;;;9.68;5.20;;;13.50;99.90;;;;;;5056162;28;20126;-72
2022/05/11 04:19:33;;;;;;;11.35;5.60;;;;;;;;;;5038720;28;20044;-72
2022/05/11 04:21:59;;;;;;;10.93;5.50;;;13.50;99.90;;;;;;5039406;28;20133;-73
2022/05/11 04:24:24;;;;;;;12.30;6.07;;;13.70;99.90;;;;;;5073855;28;20044;-72
2022/05/11 04:26:50;;;;;;;11.90;5.55;;;;;;;;;;5055825;28;20406;-72
2022/05/11 04:29:16;;;;;;;11.38;5.53;;;13.60;99.90;;;;;;5072977;28;20053;-72
2022/05/11 04:31:42;;;;;;;11.77;4.93;;;13.60;99.90;;;;;;5073886;28;20041;-72
2022/05/11 04:34:11;;;;;;;10.52;5.65;;;13.70;99.90;;;;;;5072734;28;20164;-72
2022/05/11 04:36:38;;;;;;;12.55;5.78;;;13.70;99.90;;;;;;5073718;28;20048;-72
2022/05/11 04:39:04;;;;;;;10.18;5.40;;;13.70;99.90;;;;;;5073081;28;20116;-72
2022/05/11 04:41:29;;;;;;;15.88;5.78;;;13.70;99.90;;;;;;5037618;28;20179;-73
2022/05/11 04:43:56;;;;;;;12.65;5.63;;;13.70;99.90;;;;;;5073568;28;20082;-72
2022/05/11 04:46:21;;;;;;;11.20;5.45;;;13.70;99.90;;;;;;5073551;28;20137;-72
2022/05/11 04:48:47;;;;;;;11.95;5.30;;;13.80;99.90;;;;;;5073454;28;20075;-72
2022/05/11 04:51:13;;;;;;;10.57;5.22;;;13.80;99.90;;;;;;5072262;28;20055;-72
2022/05/11 04:53:38;;;;;;;12.15;6.43;;;13.90;99.90;;;;;;5055500;28;20047;-72
2022/05/11 04:56:04;;;;;;;12.02;5.03;;;13.80;99.90;;;;;;5055294;28;20039;-72
2022/05/11 04:58:30;;;;;;;9.43;5.40;;;13.80;99.90;;;;;;5055581;28;20441;-71
2022/05/11 05:00:56;;;;;;;10.68;5.93;;;13.90;99.90;;;;;;5054445;28;20115;-71
2022/05/11 05:03:21;;;;;;;12.50;5.68;;;13.90;99.90;;;;;;5055330;28;20032;-71
2022/05/11 05:05:47;;;;;;;11.82;6.15;;;14.00;99.90;;;;;;5072877;28;20041;-73
2022/05/11 05:08:13;;;;;;;11.25;5.25;;;13.80;99.90;;;;;;5055296;28;20135;-72
2022/05/11 05:10:38;;;;;;;9.30;5.25;;;13.80;99.90;;;;;;5072293;28;20482;-72
2022/05/11 05:13:07;;;;;;;15.70;6.55;;;14.00;99.90;;;;;;5054896;28;20040;-73
2022/05/11 05:15:36;;;;;;;11.90;5.50;;;13.90;99.90;;;;;;5054919;28;20040;-72
2022/05/11 05:18:03;;;;;;;10.77;5.55;;;14.00;99.90;;;;;;5038218;28;20055;-72
2022/05/11 05:20:30;;;;;;;12.57;5.22;;;14.10;99.90;;;;;;5054139;28;20036;-72
2022/05/11 05:22:56;;;;;;;14.70;5.70;;;14.10;99.90;;;;;;5054650;28;20640;-72
2022/05/11 05:25:21;;;;;;;11.65;5.65;;;14.20;99.90;;;;;;5054756;28;20039;-72
2022/05/11 05:27:50;;;;;;;11.88;6.38;;;14.10;99.90;;;;;;5055028;28;20039;-72
2022/05/11 05:33:00;;;;;;;10.10;5.28;;;14.10;99.90;;;;;;5072528;28;20040;-72
2022/05/11 05:35:25;;;;;;;11.43;4.95;;;14.20;99.90;;;;;;5072366;28;20040;-72
2022/05/11 05:37:51;;;;;;;11.00;5.00;;;14.00;99.90;;;;;;5054581;28;20036;-72
2022/05/11 05:40:17;;;;;;;10.85;4.93;;;14.30;99.90;;;;;;5037377;28;20037;-73
2022/05/11 05:42:43;;;;;;;11.05;5.57;;;14.30;99.90;;;;;;5071228;28;20037;-72
2022/05/11 05:45:10;;;;;;;8.88;5.20;;;14.20;99.90;;;;;;5054070;28;20037;-72
2022/05/11 05:47:36;;;;;;;17.52;5.72;;;;;;;;;;5037789;28;20049;-73
2022/05/11 05:50:02;;;;;;;11.73;5.70;;;;;;;;;;5053791;28;20506;-72
2022/05/11 05:52:28;;;;;;;16.48;6.32;;;14.30;99.90;;;;;;5037954;28;20033;-71
2022/05/11 05:54:56;;;;;;;19.63;6.88;;;14.40;99.90;;;;;;5054216;28;20540;-72
2022/05/11 05:57:21;;;;;;;15.63;5.60;;;14.40;99.90;;;;;;5037775;28;20097;-72
2022/05/11 05:59:47;;;;;;;11.23;5.40;;;14.50;99.90;;;;;;5053453;28;20040;-72
2022/05/11 06:02:14;;;;;;;16.42;5.53;;;14.50;99.90;;;;;;5054165;28;20036;-72
2022/05/11 06:04:41;;;;;;;15.43;5.22;;;14.70;99.90;;;;;;5059381;28;20089;-71
2022/05/11 06:07:07;;;;;;;13.88;6.07;;;14.80;99.90;;;;;;5074179;28;20050;-71
2022/05/11 06:09:33;;;;;;;13.68;5.55;;;;;;;;;;5035667;28;20044;-71
2022/05/11 06:11:59;;;;;;;8.82;5.25;;;;;;;;;;5044131;28;20041;-73
2022/05/11 06:14:25;;;;;;;16.85;6.32;;;;;;;;;;5066970;28;20037;-71
2022/05/11 06:16:53;;;;;;;14.93;5.70;;;;;;;;;;5068078;28;20051;-72
2022/05/11 06:19:19;;;;;;;14.18;5.68;;;;;;;;;;5044177;28;20043;-67
2022/05/11 06:21:47;;;;;;;12.35;5.68;;;15.10;99.90;;;;;;5043459;28;20040;-72
2022/05/11 06:24:13;;;;;;;14.38;4.57;;;;;;;;;;5014439;28;20400;-74
2022/05/11 06:26:38;;;;;;;13.25;4.28;;;15.40;99.90;;;;;;5050905;28;20111;-69
2022/05/11 06:29:05;;;;;;;10.75;4.88;;;;;;;;;;5021988;28;20032;-72
2022/05/11 06:31:31;;;;;;;16.85;5.45;;;15.30;99.90;;;;;;5072424;28;20040;-72
2022/05/11 06:33:57;;;;;;;14.63;4.63;;;;;;;;;;5052590;28;20051;-72
2022/05/11 06:36:23;;;;;;;12.90;4.32;;;;;;;;;;5054393;28;20136;-71
2022/05/11 06:38:51;;;;;;;12.93;4.20;;;15.10;99.90;;;;;;5053719;28;20135;-72
2022/05/11 06:41:20;;;;;;;12.65;4.07;;;15.10;99.90;;;;;;5036588;28;20051;-70
2022/05/11 06:43:45;;;;;;;17.42;4.00;;;15.20;99.90;;;;;;5071282;28;20045;-70
2022/05/11 06:46:12;;;;;;;10.63;3.67;;;15.00;99.90;;;;;;5071707;28;20040;-71
2022/05/11 06:48:38;;;;;;;15.52;4.97;;;15.20;99.90;;;;;;5053535;28;20041;-71
2022/05/11 06:51:04;;;;;;;12.48;3.67;;;15.30;99.90;;;;;;5051301;28;20042;-72
2022/05/11 06:59:16;;;;;;;17.20;3.55;;;15.20;99.90;;;;;;5037180;28;20054;-73
2022/05/11 07:01:43;;;;;;;11.05;4.30;;;15.50;99.90;;;;;;5043403;28;20060;-72
2022/05/11 07:04:09;;;;;;;17.90;3.80;;;15.50;99.90;;;;;;5057115;28;20199;-71
2022/05/11 07:06:34;;;;;;;17.10;4.13;;;15.50;99.90;;;;;;5075278;28;20036;-72
2022/05/11 07:09:00;;;;;;;10.90;4.25;;;15.50;99.90;;;;;;5057004;28;20044;-71
2022/05/11 07:14:09;;;;;;;10.90;3.45;;;15.70;99.90;;;;;;5043097;28;20055;-71
2022/05/11 07:16:35;;;;;;;14.23;4.43;;;15.60;99.90;;;;;;5057268;28;20048;-72
2022/05/11 07:19:05;;;;;;;9.68;3.08;;;15.60;99.90;;;;;;5074641;28;20394;-71
2022/05/11 07:21:31;;;;;;;12.48;3.30;;;;;;;;;;5057252;28;20115;-72
2022/05/11 07:23:56;;;;;;;12.98;3.60;;;15.90;99.90;;;;;;5056892;28;20123;-73
2022/05/11 07:26:22;;;;;;;14.70;3.35;;;15.80;99.90;;;;;;5075022;28;20037;-72
2022/05/11 07:28:48;;;;;;;13.85;3.80;;;15.90;99.90;;;;;;5060173;28;20028;-71
2022/05/11 07:31:13;;;;;;;15.50;4.03;;;15.80;99.90;;;;;;5066282;28;20050;-71
2022/05/11 07:33:39;;;;;;;13.05;3.72;;;16.00;99.90;;;;;;5047773;28;20039;-65
2022/05/11 07:36:05;;;;;;;13.95;4.10;;;16.30;99.90;;;;;;5058388;28;20048;-72
2022/05/11 07:38:32;;;;;;;18.65;4.20;;;16.10;99.90;;;;;;5067987;28;20048;-71
2022/05/11 07:40:57;;;;;;;21.08;5.28;;;17.10;99.90;;;;;;5061106;28;20075;-72
2022/05/11 07:43:23;;;;;;;12.82;3.42;;;16.20;99.90;;;;;;5074602;28;20076;-71
2022/05/11 07:45:49;;;;;;;13.68;4.00;;;16.40;99.90;;;;;;5074447;28;20040;-71
2022/05/11 07:48:17;;;;;;;23.15;3.80;;;16.20;99.90;;;;;;5074344;28;20086;-72
2022/05/11 07:50:43;;;;;;;13.65;3.60;;;16.20;99.90;;;;;;5072661;28;20028;-71
2022/05/11 07:53:08;;;;;;;12.70;4.35;;;16.50;99.90;;;;;;5074343;28;20082;-72
2022/05/11 07:55:36;;;;;;;25.42;4.55;;;16.60;99.90;;;;;;5073138;28;20098;-71
2022/05/11 08:00:45;;;;;;;16.40;4.63;;;16.50;99.90;;;;;;5035396;28;20048;-72
2022/05/11 08:03:11;;;;;;;18.58;4.82;;;16.30;99.90;;;;;;5045294;28;20040;-70
2022/05/11 08:05:38;;;;;;;14.95;3.85;;;16.30;99.90;;;;;;5039207;28;20040;-73
2022/05/11 08:08:06;;;;;;;24.65;4.07;;;16.30;99.90;;;;;;5039363;28;20094;-72
2022/05/11 08:10:36;;;;;;;14.00;3.85;;;16.50;99.90;;;;;;5073262;28;20037;-71
2022/05/11 08:13:05;;;;;;;22.83;5.78;;;16.50;99.90;;;;;;5055978;28;20040;-72
2022/05/11 08:15:32;;;;;;;18.30;4.63;;;16.30;99.90;;;;;;5073736;28;20044;-72
2022/05/11 08:17:58;;;;;;;12.77;3.90;;;16.60;99.90;;;;;;5055942;28;20036;-71
2022/05/11 08:20:28;;;;;;;24.80;4.70;;;16.30;99.90;;;;;;5055366;28;20041;-71
2022/05/11 08:22:55;;;;;;;17.90;5.25;;;16.60;99.90;;;;;;5073662;28;20116;-73
2022/05/11 08:25:25;;;;;;;18.52;4.50;;;16.50;99.90;;;;;;5072550;28;20123;-71
2022/05/11 08:27:53;;;;;;;13.93;4.32;;;16.70;99.90;;;;;;5055599;28;20036;-71
2022/05/11 08:33:21;;;;;;;14.55;4.30;;;17.10;99.90;;;;;;5072173;28;20040;-72
2022/05/11 08:35:49;;;;;;;15.18;3.67;;;16.90;99.90;;;;;;5072280;28;20036;-72
2022/05/11 08:38:15;;;;;;;20.30;4.30;;;16.80;99.90;;;;;;5071940;28;20529;-72
2022/05/11 08:41:04;;;;;;;14.55;3.33;;;16.90;99.90;;;;;;5069587;28;20107;-72
2022/05/11 08:43:31;;;;;;;19.60;3.60;;;16.80;99.90;;;;;;5075256;28;20123;-73
2022/05/11 08:46:30;;;;;;;24.58;4.07;;;16.80;99.90;;;;;;5059271;28;20170;-72
2022/05/11 08:49:21;;;;;;;15.00;3.67;;;17.00;99.90;;;;;;5092247;28;20036;-73
2022/05/11 08:51:58;;;;;;;14.30;3.78;;;17.30;99.90;;;;;;5093644;28;20067;-72
2022/05/11 08:54:33;;;;;;;17.95;3.70;;;16.80;99.90;;;;;;5093479;28;20386;-71
2022/05/11 08:57:00;;;;;;;13.13;3.70;;;17.00;99.90;;;;;;5058637;28;20488;-71
2022/05/11 08:59:31;;;;;;;14.73;3.15;;;16.60;99.90;;;;;;5074494;28;20036;-71
2022/05/11 09:02:03;;;;;;;17.15;4.22;;;16.80;99.90;;;;;;5093461;28;20036;-72
2022/05/11 09:06:57;;;;;;;16.95;4.03;;;16.70;99.90;;;;;;5051331;28;20407;-71
2022/05/11 09:09:24;;;;;;;12.52;3.88;;;17.20;99.90;;;;;;5051978;28;20539;-71
2022/05/11 09:11:53;;;;;;;16.92;3.42;;;17.40;99.90;;;;;;5060349;28;20406;-70
2022/05/11 09:14:44;;;;;;;23.75;5.20;;;17.50;99.90;;;;;;5044673;28;20545;-70
2022/05/11 09:17:29;;;;;;;25.20;4.50;;;17.60;99.90;;;;;;5043962;28;20091;-70
2022/05/11 09:20:03;;;;;;;12.40;3.67;;;17.90;99.90;;;;;;5051320;28;20508;-69
2022/05/11 09:22:31;;;;;;;12.77;4.18;;;18.00;99.90;;;;;;5025473;28;20052;-69
2022/05/11 09:24:59;;;;;;;15.85;4.38;;;18.10;99.90;;;;;;5030979;28;20049;-70
2022/05/11 09:27:32;;;;;;;10.93;3.28;;;17.90;99.90;;;;;;5031280;28;20052;-68
2022/05/11 09:30:01;;;;;;;12.88;2.80;;;18.20;99.90;;;;;;5030284;28;20120;-69
2022/05/11 09:32:38;;;;;;;14.18;3.40;;;18.10;99.90;;;;;;5031428;28;20090;-71
2022/05/11 09:35:26;;;;;;;11.07;3.17;;;18.60;99.90;;;;;;5031084;28;20045;-69
2022/05/11 09:37:59;;;;;;;15.05;3.22;;;17.90;99.90;;;;;;5032299;28;20511;-69
2022/05/11 09:40:25;;;;;;;17.67;3.65;;;18.00;99.90;;;;;;5031568;28;20052;-69
2022/05/11 09:42:59;;;;;;;16.20;3.72;;;18.20;99.90;;;;;;5041687;28;20046;-69
2022/05/11 09:45:47;;;;;;;16.77;3.10;;;18.20;99.90;;;;;;5050648;28;20558;-69
2022/05/11 09:48:28;;;;;;;17.00;3.58;;;18.00;99.90;;;;;;5052031;28;20575;-69
2022/05/11 09:50:56;;;;;;;17.02;3.60;;;18.40;99.90;;;;;;5050924;28;20493;-70
2022/05/11 09:53:30;;;;;;;15.23;2.88;;;17.20;99.90;;;;;;5033961;28;20048;-69
2022/05/11 09:55:56;;;;;;;12.27;2.58;;;18.30;99.90;;;;;;5048562;28;20045;-69
2022/05/11 09:58:33;;;;;;;11.68;3.78;;;18.40;99.90;;;;;;5050405;28;20570;-69
2022/05/11 10:01:14;;;;;;;15.77;3.58;;;18.60;99.90;;;;;;5050824;28;20056;-69
2022/05/11 10:03:46;;;;;;;10.55;2.92;;;18.60;99.90;;;;;;5050511;28;20037;-69
2022/05/11 10:06:14;;;;;;;10.37;2.63;;;18.30;99.90;;;;;;5051589;28;20116;-69
2022/05/11 10:08:43;;;;;;;10.23;2.65;;;18.20;99.90;;;;;;5051911;28;20048;-70
2022/05/11 10:11:18;;;;;;;11.27;2.75;;;18.20;99.90;;;;;;5049423;28;20108;-69
2022/05/11 10:22:54;;;;;;;13.43;2.80;;;18.40;99.90;;;;;;5041008;28;20522;-69
2022/05/11 10:25:30;;;;;;;11.93;3.17;;;18.30;99.90;;;;;;5031449;28;20045;-69
2022/05/11 10:28:23;;;;;;;13.00;3.38;;;18.70;99.90;;;;;;5030584;28;20045;-71
2022/05/11 10:31:12;;;;;;;9.50;2.72;;;18.60;99.90;;;;;;5028870;28;20050;-72
2022/05/11 10:33:50;;;;;;;11.65;3.30;;;18.20;99.90;;;;;;5021514;28;20038;-69
2022/05/11 10:36:44;;;;;;;11.75;2.78;;;18.40;99.90;;;;;;5026461;28;20073;-68
2022/05/11 10:39:40;;;;;;;12.63;3.17;;;18.30;99.90;;;;;;5025881;28;20045;-68
2022/05/11 10:42:32;;;;;;;12.35;3.10;;;18.20;99.90;;;;;;5026224;28;20175;-69
2022/05/11 10:45:20;;;;;;;11.57;2.95;;;18.80;99.90;;;;;;5025378;28;20411;-71
2022/05/11 10:48:00;;;;;;;12.43;2.95;;;18.90;99.90;;;;;;5026842;28;20049;-70
2022/05/11 10:50:35;;;;;;;15.13;3.83;;;18.70;99.90;;;;;;5027060;28;20047;-70
2022/05/11 10:53:17;;;;;;;14.18;3.78;;;18.50;99.90;;;;;;5028765;28;20041;-69
2022/05/11 10:56:01;;;;;;;19.13;3.88;;;18.60;99.90;;;;;;5030932;28;20042;-70
2022/05/11 10:59:14;;;;;;;19.83;3.78;;;18.50;99.90;;;;;;5029973;28;20503;-69
2022/05/11 11:01:54;;;;;;;18.07;3.83;;;18.60;99.90;;;;;;5013905;28;20040;-70
2022/05/11 11:04:38;;;;;;;15.65;4.00;;;18.50;99.90;;;;;;5030281;28;20383;-69
2022/05/11 11:07:22;;;;;;;;;;;18.70;99.90;;;;;;5030093;28;20069;-70
2022/05/11 11:10:06;;;;;;;13.43;3.92;;;18.70;99.90;;;;;;5028827;28;19963;-70
2022/05/11 11:13:10;;;;;;;17.02;3.70;;;19.20;99.90;;;;;;5013258;28;20094;-70
2022/05/11 11:15:41;;;;;;;19.52;4.70;;;19.30;99.90;;;;;;5029511;28;20048;-69
2022/05/11 11:18:09;;;;;;;11.85;3.20;;;19.40;99.90;;;;;;5013186;28;20041;-70
2022/05/11 11:20:37;;;;;;;16.77;3.72;;;22.10;99.90;;;;;;5030242;28;20048;-69
2022/05/11 11:23:13;;;;;;;16.83;3.63;;;19.80;99.90;;;;;;5037123;28;20380;-70
2022/05/11 11:25:57;;;;;;;11.70;3.85;;;19.80;99.90;;;;;;5029481;28;20432;-70
2022/05/11 11:29:11;;;;;;;18.95;3.92;;;20.20;99.90;;;;;;5029886;28;20029;-70
2022/05/11 11:32:20;;;;;;;20.30;5.00;;;20.60;99.90;;;;;;5012922;28;20434;-70
2022/05/11 11:35:23;;;;;;;13.18;3.58;;;20.20;99.90;;;;;;5029692;28;20049;-69
2022/05/11 11:37:59;;;;;;;;;;;19.90;99.90;;;;;;5031167;28;20041;-69
2022/05/11 11:40:26;;;;;;;20.00;4.93;;;19.40;99.90;;;;;;5029850;28;20407;-71
2022/05/11 11:42:52;;;;;;;13.23;3.72;;;19.10;99.90;;;;;;5031377;28;20377;-70
2022/05/11 11:45:27;;;;;;;15.40;3.90;;;18.90;99.90;;;;;;5031793;28;20051;-70
2022/05/11 11:48:21;;;;;;;16.23;3.58;;;18.70;99.90;;;;;;5033242;28;20506;-69
2022/05/11 11:51:00;;;;;;;13.25;3.67;;;18.60;99.90;;;;;;5023302;28;20049;-69
2022/05/11 11:53:42;;;;;;;13.10;3.53;;;18.90;99.90;;;;;;5033107;28;20045;-69
2022/05/11 11:56:23;;;;;;;14.48;3.65;;;18.80;99.90;;;;;;5033029;28;20073;-70
2022/05/11 11:59:07;;;;;;;15.40;3.25;;;18.70;99.90;;;;;;5032602;28;20045;-70
2022/05/11 12:01:45;;;;;;;17.55;3.72;;;19.00;99.90;;;;;;5034140;28;20430;-70
2022/05/11 12:04:34;;;;;;;15.60;3.90;;;19.70;99.90;;;;;;5032773;28;20049;-71
2022/05/11 12:15:30;;;;;;;12.18;2.72;;;20.10;99.90;;;;;;5033998;28;20048;-69
2022/05/11 12:17:56;;;;;;;17.63;3.00;;;19.90;99.90;;;;;;5033926;28;20037;-68
2022/05/11 12:20:22;;;;;;;15.40;3.10;;;20.10;99.90;;;;;;5024508;28;20052;-70
2022/05/11 12:22:56;;;;;;;16.30;3.15;;;20.10;99.90;;;;;;5025436;28;20384;-68
2022/05/11 12:25:32;;;;;;;11.77;2.75;;;20.00;99.90;;;;;;5033645;28;20045;-68
2022/05/11 12:28:17;;;;;;;16.05;3.65;;;20.20;99.90;;;;;;5033797;28;20037;-68
2022/05/11 12:30:43;;;;;;;14.98;3.30;;;19.90;99.90;;;;;;5031563;28;20072;-69
2022/05/11 12:33:17;;;;;;;9.20;2.83;;;19.80;99.90;;;;;;5031828;28;20531;-68
2022/05/11 12:35:46;;;;;;;17.65;2.97;;;20.90;99.90;;;;;;5030238;28;20079;-68
2022/05/11 12:38:13;;;;;;;17.90;3.35;;;20.10;99.90;;;;;;5033268;28;20580;-68
2022/05/11 12:40:47;;;;;;;13.48;2.63;;;20.40;99.90;;;;;;5031518;28;20444;-68
2022/05/11 12:43:21;;;;;;;10.30;2.35;;;20.60;98.90;;;;;;5032232;28;20416;-68
2022/05/11 12:45:47;;;;;;;8.32;3.03;;;20.30;99.30;;;;;;5032058;28;20044;-69
2022/05/11 12:48:19;;;;;;;13.13;2.50;;;21.50;99.70;;;;;;5031905;28;20045;-68
2022/05/11 12:50:59;;;;;;;15.40;3.42;;;20.70;99.60;;;;;;5032719;28;20033;-68
2022/05/11 12:53:31;;;;;;;12.35;3.50;;;20.40;99.10;;;;;;5032194;28;20372;-68
2022/05/11 12:56:21;;;;;;;11.68;2.63;;;20.50;98.60;;;;;;5030750;28;20098;-68
2022/05/11 12:58:53;;;;;;;12.73;2.78;;;21.10;98.80;;;;;;5032859;28;20038;-68
2022/05/11 13:01:22;;;;;;;11.43;2.60;;;20.60;99.40;;;;;;5031022;28;20399;-67
2022/05/11 13:03:50;;;;;;;17.15;3.40;;;20.60;99.20;;;;;;5047908;28;20044;-67
2022/05/11 13:06:35;;;;;;;14.63;3.00;;;21.00;99.30;;;;;;5052379;28;20045;-68
2022/05/11 13:09:19;;;;;;;11.93;3.25;;;20.80;98.70;;;;;;5050527;28;20521;-68
2022/05/11 13:11:46;;;;;;;12.45;3.45;;;20.50;99.60;;;;;;5051138;28;20460;-68
2022/05/11 13:14:16;;;;;;;17.17;3.58;;;20.90;99.60;;;;;;5052626;28;20041;-68
2022/05/11 13:16:48;;;;;;;11.52;3.47;;;20.80;99.30;;;;;;5051103;28;20175;-68
2022/05/11 13:19:29;;;;;;;8.30;3.33;;;20.60;98.90;;;;;;5050353;28;20048;-68
2022/05/11 13:21:57;;;;;;;14.38;3.10;;;20.00;98.30;;;;;;5047908;28;20052;-70
2022/05/11 13:24:48;;;;;;;13.23;4.00;;;20.40;99.40;;;;;;5030945;28;20042;-68
2022/05/11 13:27:43;;;;;;;19.90;4.63;;;20.30;99.60;;;;;;5030937;28;20045;-71
2022/05/11 13:30:31;;;;;;;14.65;3.97;;;19.90;99.80;;;;;;5029731;28;20038;-71
2022/05/11 13:33:01;;;;;;;15.77;4.20;;;19.90;99.90;;;;;;5038719;28;20072;-68
2022/05/11 13:35:36;;;;;;;15.27;4.05;;;20.10;99.90;;;;;;5030898;28;20574;-69
2022/05/11 13:38:11;;;;;;;12.75;3.67;;;19.60;99.50;;;;;;5032146;28;20689;-68
2022/05/11 13:40:37;;;;;;;18.45;5.05;;;19.70;99.90;;;;;;5031476;28;20069;-68
2022/05/11 13:43:23;;;;;;;16.70;3.97;;;20.00;99.70;;;;;;5030816;28;20041;-68
2022/05/11 13:46:13;;;;;;;12.30;3.80;;;20.20;99.60;;;;;;5014506;28;20080;-68